Time;durP1;ratioP1;P1;durP2;ratioP2;P2;SDS_P1;SDS_P2;PMS_P1;PMS_P2;Temp;Humidity;BMP_temperature;BMP_pressure;BME280_temperature;BME280_humidity;BME280_pressure;Samples;Min_cycle;Max_cycle;Signal;HPM_P1;HPM_P2
2023/03/18 00:02:18;;;;;;;6.40;6.07;;;14.30;14.40;;;;;;4934336;29;20186;-53
2023/03/18 00:04:45;;;;;;;6.43;6.00;;;14.30;14.50;;;;;;4934399;29;20262;-54
2023/03/18 00:07:11;;;;;;;6.27;5.90;;;14.20;15.20;;;;;;4934393;29;20419;-50
2023/03/18 00:09:37;;;;;;;10.23;6.10;;;14.20;14.70;;;;;;4934859;29;21044;-52
2023/03/18 00:12:03;;;;;;;5.47;5.27;;;14.30;14.70;;;;;;4934540;29;20558;-53
2023/03/18 00:14:29;;;;;;;6.23;5.93;;;14.20;14.60;;;;;;4951593;29;20202;-53
2023/03/18 00:16:55;;;;;;;6.10;5.70;;;14.30;14.50;;;;;;4934165;29;20419;-50
2023/03/18 00:19:23;;;;;;;6.00;5.60;;;14.20;14.50;;;;;;4933418;29;20703;-47
2023/03/18 00:21:49;;;;;;;6.03;5.83;;;14.20;14.40;;;;;;4933514;29;20182;-48
2023/03/18 00:24:15;;;;;;;5.70;5.30;;;14.20;14.30;;;;;;4951558;29;20814;-50
2023/03/18 00:26:42;;;;;;;5.80;5.47;;;14.20;14.30;;;;;;4933777;29;20431;-50
2023/03/18 00:29:08;;;;;;;5.70;5.40;;;14.20;14.50;;;;;;4933287;29;20419;-49
2023/03/18 00:31:35;;;;;;;5.67;5.40;;;14.20;14.30;;;;;;4933547;29;20454;-48
2023/03/18 00:34:00;;;;;;;6.93;6.30;;;14.20;14.50;;;;;;4933431;29;20462;-49
2023/03/18 00:36:26;;;;;;;6.30;5.90;;;14.20;14.80;;;;;;4933995;29;20979;-52
2023/03/18 00:38:56;;;;;;;5.87;5.43;;;14.10;14.60;;;;;;4933385;29;20422;-53
2023/03/18 00:41:26;;;;;;;5.87;5.67;;;14.10;14.60;;;;;;4933449;29;20686;-52
2023/03/18 00:43:53;;;;;;;6.63;6.23;;;14.10;14.60;;;;;;4933947;29;20446;-52
2023/03/18 00:46:23;;;;;;;6.50;6.20;;;14.10;14.70;;;;;;4933996;29;20415;-49
2023/03/18 00:48:51;;;;;;;7.03;6.63;;;14.10;14.60;;;;;;4933426;29;20425;-49
2023/03/18 00:51:18;;;;;;;6.20;5.70;;;14.10;14.60;;;;;;4933565;29;20505;-51
2023/03/18 00:53:47;;;;;;;6.10;5.80;;;14.10;15.10;;;;;;4933075;29;20430;-50
2023/03/18 00:56:13;;;;;;;5.80;5.60;;;14.00;14.80;;;;;;4933397;29;20939;-48
2023/03/18 00:58:39;;;;;;;5.80;5.60;;;14.00;14.90;;;;;;4934419;29;20784;-47
2023/03/18 01:01:06;;;;;;;6.13;5.93;;;14.00;15.10;;;;;;4933070;29;20419;-51
2023/03/18 01:03:33;;;;;;;6.87;6.57;;;14.00;14.90;;;;;;4934002;29;20415;-54
2023/03/18 01:06:03;;;;;;;6.03;5.73;;;13.90;15.10;;;;;;4933743;29;20427;-50
2023/03/18 01:08:29;;;;;;;6.93;6.60;;;13.90;15.20;;;;;;4932960;29;20502;-53
2023/03/18 01:10:55;;;;;;;6.37;6.07;;;13.90;15.10;;;;;;4933090;29;20930;-51
2023/03/18 01:13:22;;;;;;;6.83;6.03;;;13.90;15.20;;;;;;4936594;29;20490;-51
2023/03/18 01:15:49;;;;;;;5.93;5.67;;;13.90;15.20;;;;;;4936401;29;20465;-50
2023/03/18 01:18:16;;;;;;;6.00;5.70;;;14.00;15.80;;;;;;4937051;29;20973;-49
2023/03/18 01:20:43;;;;;;;5.90;5.60;;;13.90;15.60;;;;;;4936728;29;20781;-52
2023/03/18 01:23:09;;;;;;;6.70;6.20;;;13.90;15.30;;;;;;4936190;29;20415;-51
2023/03/18 01:25:36;;;;;;;6.37;6.07;;;13.90;15.80;;;;;;4936539;29;20422;-51
2023/03/18 01:28:02;;;;;;;6.07;5.77;;;13.90;15.50;;;;;;4936254;29;20786;-49
2023/03/18 01:30:29;;;;;;;5.80;5.60;;;13.80;14.90;;;;;;4936729;29;20510;-51
2023/03/18 01:32:55;;;;;;;6.43;6.13;;;13.80;14.90;;;;;;4936140;29;20510;-52
2023/03/18 01:35:22;;;;;;;6.37;6.07;;;13.80;14.10;;;;;;4936129;29;20466;-51
2023/03/18 01:37:48;;;;;;;6.60;6.20;;;13.80;14.50;;;;;;4936350;29;20411;-52
2023/03/18 01:40:15;;;;;;;7.03;6.57;;;13.70;14.30;;;;;;4936262;29;20430;-53
2023/03/18 01:42:42;;;;;;;6.80;6.40;;;13.70;13.70;;;;;;4936179;29;20698;-49
2023/03/18 01:45:18;;;;;;;6.33;6.07;;;13.70;14.60;;;;;;4936036;29;20895;-50
2023/03/18 01:47:45;;;;;;;5.73;5.53;;;13.80;14.80;;;;;;4936164;29;20427;-49
2023/03/18 01:50:13;;;;;;;6.60;6.20;;;13.80;14.60;;;;;;4936119;29;20423;-50
2023/03/18 01:52:40;;;;;;;6.40;6.20;;;13.90;14.50;;;;;;4936524;29;20485;-48
2023/03/18 01:55:11;;;;;;;5.77;5.53;;;13.90;14.40;;;;;;4935810;29;20943;-51
2023/03/18 01:57:37;;;;;;;7.07;6.40;;;13.90;14.60;;;;;;4936343;29;20419;-48
2023/03/18 02:00:04;;;;;;;5.93;5.70;;;13.90;14.30;;;;;;4953343;29;20846;-49
2023/03/18 02:02:31;;;;;;;6.13;5.80;;;14.00;14.70;;;;;;4953433;29;20793;-46
2023/03/18 02:05:02;;;;;;;6.03;5.77;;;14.00;14.60;;;;;;4935933;29;20417;-46
2023/03/18 02:07:32;;;;;;;6.10;5.90;;;13.90;13.40;;;;;;4952781;29;20407;-47
2023/03/18 02:10:01;;;;;;;6.27;5.70;;;13.90;13.70;;;;;;4935473;29;20454;-47
2023/03/18 02:12:38;;;;;;;6.03;5.83;;;13.90;14.10;;;;;;4935494;29;20431;-46
2023/03/18 02:15:09;;;;;;;5.80;5.60;;;13.90;14.20;;;;;;4935370;29;20557;-49
2023/03/18 02:17:40;;;;;;;5.40;5.10;;;13.90;14.10;;;;;;4935268;29;20959;-47
2023/03/18 02:20:18;;;;;;;6.60;6.30;;;13.90;13.70;;;;;;4935046;29;20488;-48
2023/03/18 02:23:02;;;;;;;6.80;6.50;;;13.90;14.20;;;;;;4934958;29;20477;-52
2023/03/18 02:25:30;;;;;;;6.40;6.00;;;13.90;14.40;;;;;;4935120;29;20912;-50
2023/03/18 02:28:08;;;;;;;5.83;5.60;;;14.00;14.30;;;;;;4935567;29;20426;-49
2023/03/18 02:30:38;;;;;;;6.23;5.93;;;13.90;13.90;;;;;;4934939;29;20414;-47
2023/03/18 02:33:06;;;;;;;6.00;5.50;;;13.80;14.30;;;;;;4935614;29;20425;-51
2023/03/18 02:35:33;;;;;;;5.83;5.63;;;13.80;15.30;;;;;;4934540;29;20475;-48
2023/03/18 02:37:58;;;;;;;5.73;5.53;;;13.70;14.50;;;;;;4935164;29;20785;-47
2023/03/18 02:40:28;;;;;;;5.60;5.40;;;13.60;14.70;;;;;;4934984;29;20419;-50
2023/03/18 02:42:56;;;;;;;6.13;5.83;;;13.50;14.80;;;;;;4934966;29;20725;-50
2023/03/18 02:45:28;;;;;;;6.27;5.97;;;13.50;15.00;;;;;;4934953;29;20482;-50
2023/03/18 02:47:55;;;;;;;5.80;5.57;;;13.50;15.00;;;;;;4934742;29;20808;-51
2023/03/18 02:50:20;;;;;;;5.57;5.37;;;13.60;15.20;;;;;;4934809;29;20419;-47
2023/03/18 02:52:46;;;;;;;6.43;6.03;;;13.70;15.10;;;;;;4934841;29;20838;-49
2023/03/18 02:55:11;;;;;;;5.97;5.70;;;13.70;15.20;;;;;;4935668;29;20250;-50
2023/03/18 02:57:37;;;;;;;5.60;5.30;;;13.70;15.10;;;;;;4934811;29;20230;-50
2023/03/18 03:00:04;;;;;;;5.70;5.50;;;13.60;14.70;;;;;;4934572;29;20179;-50
2023/03/18 03:02:30;;;;;;;6.03;5.70;;;13.60;14.80;;;;;;4934706;29;20186;-53
2023/03/18 03:04:56;;;;;;;6.10;5.90;;;13.60;15.20;;;;;;4934770;29;20514;-51
2023/03/18 03:07:26;;;;;;;6.37;6.07;;;13.60;15.10;;;;;;4934403;29;20787;-47
2023/03/18 03:09:52;;;;;;;6.23;6.03;;;13.70;15.30;;;;;;4934688;29;20225;-50
2023/03/18 03:12:18;;;;;;;6.93;6.20;;;13.70;14.90;;;;;;4934855;29;20415;-49
2023/03/18 03:14:44;;;;;;;6.43;5.90;;;13.70;14.70;;;;;;4934328;29;20477;-51
2023/03/18 03:17:10;;;;;;;5.97;5.37;;;13.80;14.70;;;;;;4933770;29;20411;-49
2023/03/18 03:19:35;;;;;;;5.83;5.33;;;13.80;15.10;;;;;;4951816;29;20214;-49
2023/03/18 03:22:01;;;;;;;5.93;5.73;;;13.80;15.20;;;;;;4934276;29;20423;-50
2023/03/18 03:24:27;;;;;;;5.77;5.47;;;13.80;15.00;;;;;;4934782;29;20194;-52
2023/03/18 03:26:52;;;;;;;6.50;6.10;;;13.80;14.90;;;;;;4934229;29;20190;-48
2023/03/18 03:29:19;;;;;;;6.37;6.03;;;13.80;14.90;;;;;;4934446;29;20184;-50
2023/03/18 03:31:45;;;;;;;6.33;6.13;;;13.90;15.20;;;;;;4933825;29;20187;-50
2023/03/18 03:34:10;;;;;;;5.77;5.57;;;13.80;15.10;;;;;;4932889;29;20478;-51
2023/03/18 03:36:36;;;;;;;5.90;5.70;;;13.80;15.10;;;;;;4933871;29;20507;-48
2023/03/18 03:39:03;;;;;;;5.87;5.57;;;13.80;15.20;;;;;;4933553;29;20171;-48
2023/03/18 03:41:28;;;;;;;6.20;6.00;;;13.80;15.30;;;;;;4933738;29;20418;-47
2023/03/18 03:43:54;;;;;;;6.40;6.10;;;13.70;15.40;;;;;;4933516;29;20779;-50
2023/03/18 03:46:20;;;;;;;5.63;5.50;;;13.70;15.40;;;;;;4934304;29;20171;-49
2023/03/18 03:48:46;;;;;;;6.37;6.07;;;13.70;15.50;;;;;;4934178;29;20175;-47
2023/03/18 03:51:13;;;;;;;6.03;5.80;;;13.60;15.70;;;;;;4933652;29;20779;-49
2023/03/18 03:53:39;;;;;;;5.50;5.30;;;13.60;15.70;;;;;;4934368;29;20511;-47
2023/03/18 03:56:07;;;;;;;6.90;6.60;;;13.60;15.40;;;;;;4933349;29;20477;-47
2023/03/18 03:58:34;;;;;;;6.40;6.00;;;13.60;15.40;;;;;;4933998;29;20415;-47
2023/03/18 04:00:59;;;;;;;6.73;6.43;;;13.60;15.40;;;;;;4933626;29;20904;-49
2023/03/18 04:03:26;;;;;;;7.37;6.90;;;13.60;15.70;;;;;;4933823;29;20478;-49
2023/03/18 04:05:52;;;;;;;6.40;6.20;;;13.60;16.10;;;;;;4933560;29;20274;-47
2023/03/18 04:08:18;;;;;;;6.77;6.27;;;13.50;16.00;;;;;;4950895;29;20982;-50
2023/03/18 04:10:44;;;;;;;6.13;5.93;;;13.50;16.10;;;;;;4933938;29;20522;-51
2023/03/18 04:13:10;;;;;;;6.70;6.40;;;13.50;16.40;;;;;;4933688;29;20278;-52
2023/03/18 04:15:36;;;;;;;6.80;6.50;;;13.50;16.40;;;;;;4933696;29;20207;-51
2023/03/18 04:18:05;;;;;;;6.40;6.20;;;13.50;16.80;;;;;;4933752;29;20419;-51
2023/03/18 04:20:35;;;;;;;6.67;6.37;;;13.50;16.50;;;;;;4934144;29;20199;-50
2023/03/18 04:23:01;;;;;;;6.77;6.57;;;13.50;16.40;;;;;;4934098;29;20411;-49
2023/03/18 04:25:27;;;;;;;6.50;6.20;;;13.40;16.50;;;;;;4933446;29;20426;-48
2023/03/18 04:27:53;;;;;;;7.00;6.70;;;13.40;16.70;;;;;;4933269;29;20489;-46
2023/03/18 04:30:19;;;;;;;6.73;6.47;;;13.40;16.90;;;;;;4933037;29;20929;-47
2023/03/18 04:32:45;;;;;;;7.40;6.90;;;13.40;16.80;;;;;;4933222;29;20531;-48
2023/03/18 04:35:11;;;;;;;7.43;7.10;;;13.40;17.20;;;;;;4933694;29;20485;-50
2023/03/18 04:37:37;;;;;;;7.10;6.80;;;13.30;17.20;;;;;;4933499;29;20263;-50
2023/03/18 04:40:07;;;;;;;6.80;6.50;;;13.40;17.20;;;;;;4933992;29;20183;-47
2023/03/18 04:42:33;;;;;;;6.97;6.67;;;13.40;17.20;;;;;;4933807;29;20785;-49
2023/03/18 04:44:58;;;;;;;6.13;5.93;;;13.40;17.20;;;;;;4933778;29;20510;-52
2023/03/18 04:47:24;;;;;;;6.40;6.20;;;13.50;17.30;;;;;;4937261;29;20191;-52
2023/03/18 04:49:50;;;;;;;7.43;6.87;;;13.60;17.40;;;;;;4937249;29;20479;-50
2023/03/18 04:52:16;;;;;;;9.27;7.53;;;13.60;17.10;;;;;;4937173;29;20479;-47
2023/03/18 04:54:42;;;;;;;6.70;6.30;;;13.50;17.30;;;;;;4937033;29;20554;-48
2023/03/18 04:57:08;;;;;;;6.17;5.97;;;13.50;17.30;;;;;;4937419;29;20582;-49
2023/03/18 04:59:33;;;;;;;6.40;6.10;;;13.50;17.30;;;;;;4937948;29;20485;-49
2023/03/18 05:01:59;;;;;;;6.37;6.00;;;13.50;17.30;;;;;;4956048;29;20266;-50
2023/03/18 05:04:25;;;;;;;6.20;5.83;;;13.50;17.30;;;;;;4938706;29;20180;-49
2023/03/18 05:06:51;;;;;;;6.53;6.17;;;13.50;17.30;;;;;;4938945;29;20605;-48
2023/03/18 05:09:18;;;;;;;5.70;5.50;;;13.50;17.30;;;;;;4939264;29;20528;-50
2023/03/18 05:11:44;;;;;;;6.43;6.13;;;13.50;17.00;;;;;;4956062;29;20183;-51
2023/03/18 05:14:09;;;;;;;6.07;5.83;;;13.50;17.30;;;;;;4939198;29;20874;-50
2023/03/18 05:16:35;;;;;;;5.87;5.67;;;13.50;17.30;;;;;;4939165;29;20937;-51
2023/03/18 05:19:02;;;;;;;7.07;6.60;;;13.50;17.10;;;;;;4939461;29;20659;-50
2023/03/18 05:21:28;;;;;;;6.53;6.23;;;13.50;16.60;;;;;;4939137;29;20190;-52
2023/03/18 05:23:53;;;;;;;5.90;5.70;;;13.50;16.70;;;;;;4939706;29;20422;-48
2023/03/18 05:26:19;;;;;;;6.00;5.80;;;13.50;16.90;;;;;;4939608;29;20182;-49
2023/03/18 05:28:44;;;;;;;6.13;5.70;;;13.40;16.80;;;;;;4939134;29;20762;-48
2023/03/18 05:31:10;;;;;;;5.87;5.63;;;13.40;17.20;;;;;;4939276;29;20519;-48
2023/03/18 05:33:36;;;;;;;7.00;6.50;;;13.40;17.20;;;;;;4939326;29;20183;-51
2023/03/18 05:36:02;;;;;;;6.30;6.00;;;13.40;16.90;;;;;;4939448;29;20211;-52
2023/03/18 05:38:27;;;;;;;6.63;6.30;;;13.40;17.20;;;;;;4956167;29;20182;-48
2023/03/18 05:40:54;;;;;;;6.47;6.27;;;13.40;17.20;;;;;;4939113;29;20415;-47
2023/03/18 05:43:20;;;;;;;6.40;6.13;;;13.40;17.20;;;;;;4939374;29;20182;-47
2023/03/18 05:45:47;;;;;;;6.00;5.80;;;13.30;17.10;;;;;;4939633;29;20415;-48
2023/03/18 05:48:13;;;;;;;6.97;6.47;;;13.30;17.20;;;;;;4939363;29;20950;-50
2023/03/18 05:50:42;;;;;;;6.80;6.50;;;13.30;17.20;;;;;;4938780;29;20419;-48
2023/03/18 05:53:10;;;;;;;6.97;6.67;;;13.20;17.10;;;;;;4937718;29;20176;-50
2023/03/18 05:55:36;;;;;;;7.40;7.00;;;13.20;17.30;;;;;;4937427;29;20484;-49
2023/03/18 05:58:02;;;;;;;6.80;6.30;;;13.20;17.50;;;;;;4936809;29;20415;-47
2023/03/18 06:00:29;;;;;;;7.07;6.33;;;13.20;17.40;;;;;;4939206;29;20182;-48
2023/03/18 06:02:57;;;;;;;6.77;6.37;;;13.10;17.50;;;;;;4938802;29;20521;-52
2023/03/18 06:05:23;;;;;;;6.47;6.27;;;13.10;17.70;;;;;;4939099;29;20419;-54
2023/03/18 06:07:49;;;;;;;6.63;6.40;;;13.10;17.80;;;;;;4939145;29;20426;-48
2023/03/18 06:10:16;;;;;;;6.20;6.00;;;13.10;18.10;;;;;;4939159;29;20419;-49
2023/03/18 06:12:43;;;;;;;6.17;5.97;;;13.10;18.20;;;;;;4938841;29;20426;-52
2023/03/18 06:15:10;;;;;;;6.97;6.67;;;13.10;18.10;;;;;;4938714;29;20521;-49
2023/03/18 06:17:36;;;;;;;6.13;5.93;;;13.10;17.90;;;;;;4939076;29;20408;-53
2023/03/18 06:20:04;;;;;;;6.83;6.53;;;13.10;18.10;;;;;;4938935;29;20467;-49
2023/03/18 06:22:31;;;;;;;6.70;6.40;;;13.10;18.30;;;;;;4938760;29;20430;-49
2023/03/18 06:24:58;;;;;;;6.53;6.23;;;13.00;18.30;;;;;;4938949;29;20848;-51
2023/03/18 06:27:23;;;;;;;6.63;6.33;;;13.00;18.90;;;;;;4938871;29;20447;-50
2023/03/18 06:29:49;;;;;;;7.33;7.03;;;13.00;18.70;;;;;;4938537;29;20226;-46
2023/03/18 06:32:15;;;;;;;7.90;7.50;;;13.00;18.80;;;;;;4938571;29;20220;-50
2023/03/18 06:34:41;;;;;;;6.97;6.50;;;12.90;19.20;;;;;;4938594;29;20219;-47
2023/03/18 06:37:07;;;;;;;7.13;6.63;;;12.90;18.90;;;;;;4938576;29;20636;-48
2023/03/18 06:39:33;;;;;;;7.33;7.03;;;12.90;19.20;;;;;;4938398;29;20469;-50
2023/03/18 06:42:00;;;;;;;6.80;6.50;;;12.90;18.70;;;;;;4938350;29;20477;-47
2023/03/18 06:44:25;;;;;;;6.87;6.57;;;12.90;18.90;;;;;;4938482;29;20442;-49
2023/03/18 06:46:52;;;;;;;6.27;6.07;;;12.90;19.40;;;;;;4938282;29;20461;-47
2023/03/18 06:49:18;;;;;;;7.37;6.80;;;12.90;19.70;;;;;;4938173;29;20183;-50
2023/03/18 06:51:44;;;;;;;6.47;6.07;;;12.90;19.70;;;;;;4938137;29;20506;-50
2023/03/18 06:54:09;;;;;;;5.93;5.63;;;12.90;19.40;;;;;;4938109;29;20276;-50
2023/03/18 06:56:37;;;;;;;6.57;6.27;;;12.90;19.50;;;;;;4938302;29;20478;-49
2023/03/18 06:59:04;;;;;;;7.87;7.27;;;12.90;19.50;;;;;;4938172;29;20668;-50
2023/03/18 07:01:31;;;;;;;6.97;6.47;;;12.90;19.10;;;;;;4937956;29;20477;-50
2023/03/18 07:03:59;;;;;;;13.13;7.60;;;13.00;19.30;;;;;;4937862;29;20848;-49
2023/03/18 07:06:25;;;;;;;8.10;7.50;;;12.90;20.00;;;;;;4937981;29;20422;-54
2023/03/18 07:08:51;;;;;;;8.47;7.67;;;12.90;20.00;;;;;;4922265;29;20447;-50
2023/03/18 07:11:17;;;;;;;8.17;7.77;;;12.90;19.50;;;;;;4918466;29;20432;-48
2023/03/18 07:13:43;;;;;;;7.50;6.90;;;13.00;19.80;;;;;;4918946;29;20432;-47
2023/03/18 07:16:09;;;;;;;8.80;8.20;;;13.00;19.70;;;;;;4918716;29;20474;-50
2023/03/18 07:18:36;;;;;;;7.70;7.30;;;13.00;20.60;;;;;;4924990;29;20202;-52
2023/03/18 07:21:03;;;;;;;7.17;6.73;;;13.10;20.50;;;;;;4934899;29;20522;-53
2023/03/18 07:23:28;;;;;;;8.07;7.30;;;13.10;19.90;;;;;;4918600;29;20416;-53
2023/03/18 07:25:54;;;;;;;7.50;7.00;;;13.10;20.00;;;;;;4918442;29;20578;-56
2023/03/18 07:28:20;;;;;;;7.40;6.90;;;13.10;20.00;;;;;;4918554;29;20199;-55
2023/03/18 07:30:52;;;;;;;7.30;6.80;;;13.10;19.80;;;;;;5133979;27;20529;-53
2023/03/18 07:33:18;;;;;;;7.57;6.90;;;13.10;19.50;;;;;;5108545;28;20977;-51
2023/03/18 07:35:43;;;;;;;7.53;6.93;;;13.10;20.10;;;;;;5108611;28;20519;-55
2023/03/18 07:38:10;;;;;;;8.93;8.07;;;13.20;19.40;;;;;;5108365;28;20182;-55
2023/03/18 07:40:36;;;;;;;7.40;6.90;;;13.20;19.30;;;;;;5108488;28;20626;-53
2023/03/18 07:43:03;;;;;;;7.60;7.10;;;13.20;19.10;;;;;;5108227;28;20487;-52
2023/03/18 07:45:29;;;;;;;7.10;6.60;;;13.30;18.80;;;;;;5109824;28;20932;-54
2023/03/18 07:47:55;;;;;;;7.60;7.20;;;13.30;18.90;;;;;;5109615;28;20404;-54
2023/03/18 07:50:20;;;;;;;7.73;7.13;;;13.40;19.10;;;;;;5108260;28;20262;-55
2023/03/18 07:52:47;;;;;;;7.37;6.97;;;13.40;18.80;;;;;;5108108;28;20177;-55
2023/03/18 07:55:13;;;;;;;7.40;7.00;;;13.50;18.90;;;;;;5108255;28;20181;-55
2023/03/18 07:57:39;;;;;;;6.80;6.50;;;13.50;18.40;;;;;;5108203;28;20820;-55
2023/03/18 08:00:07;;;;;;;6.73;6.13;;;13.60;18.60;;;;;;5108231;28;20431;-54
2023/03/18 08:02:34;;;;;;;7.40;7.00;;;13.60;18.40;;;;;;5107871;28;20441;-54
2023/03/18 08:05:00;;;;;;;6.87;6.57;;;13.60;18.20;;;;;;5108103;28;20796;-55
2023/03/18 08:07:27;;;;;;;7.70;7.10;;;13.70;18.10;;;;;;5108022;28;20998;-55
2023/03/18 08:09:52;;;;;;;6.67;6.40;;;13.70;17.40;;;;;;5107879;28;20554;-54
2023/03/18 08:12:18;;;;;;;7.00;6.60;;;13.80;17.50;;;;;;5107744;28;20549;-55
2023/03/18 08:14:44;;;;;;;6.80;6.30;;;13.80;17.50;;;;;;5107882;28;20174;-55
2023/03/18 08:17:09;;;;;;;7.00;5.97;;;13.90;17.60;;;;;;5107963;28;20175;-53
2023/03/18 08:19:35;;;;;;;7.20;6.60;;;13.90;17.50;;;;;;5107909;28;20555;-54
2023/03/18 08:22:01;;;;;;;7.80;7.50;;;14.00;17.30;;;;;;5108725;28;20189;-53
2023/03/18 08:24:27;;;;;;;7.60;7.10;;;14.00;16.80;;;;;;5108038;28;20412;-53
2023/03/18 08:26:52;;;;;;;7.37;6.97;;;14.00;16.60;;;;;;5107631;28;20582;-51
2023/03/18 08:29:18;;;;;;;6.77;6.40;;;14.00;16.40;;;;;;5107545;28;20332;-55
2023/03/18 08:31:44;;;;;;;6.50;6.20;;;14.00;17.10;;;;;;5107517;28;20273;-53
2023/03/18 08:34:10;;;;;;;7.20;6.77;;;14.10;16.80;;;;;;5107707;28;20178;-55
2023/03/18 08:36:36;;;;;;;6.80;6.57;;;14.20;16.10;;;;;;5107539;28;20408;-56
2023/03/18 08:39:04;;;;;;;6.77;6.47;;;14.20;15.50;;;;;;5107303;28;20548;-54
2023/03/18 08:41:29;;;;;;;6.47;6.07;;;14.30;15.70;;;;;;5097772;28;20416;-55
2023/03/18 08:43:56;;;;;;;6.17;5.97;;;14.30;15.70;;;;;;5093757;28;20425;-55
2023/03/18 08:46:22;;;;;;;6.10;5.80;;;14.40;14.90;;;;;;5093438;28;20232;-53
2023/03/18 08:48:48;;;;;;;7.03;6.70;;;14.40;13.20;;;;;;5076302;28;20866;-54
2023/03/18 08:51:15;;;;;;;6.63;6.43;;;14.50;12.50;;;;;;5076107;28;20417;-54
2023/03/18 08:53:41;;;;;;;6.90;6.60;;;14.50;12.30;;;;;;5076559;28;20425;-56
2023/03/18 08:56:07;;;;;;;6.37;6.17;;;14.60;12.50;;;;;;5076714;28;20416;-57
2023/03/18 08:58:35;;;;;;;6.77;6.43;;;14.60;11.60;;;;;;5076521;28;20458;-57
2023/03/18 09:01:05;;;;;;;6.67;6.47;;;14.70;12.30;;;;;;5095006;28;20814;-58
2023/03/18 09:03:32;;;;;;;6.30;6.00;;;14.70;12.70;;;;;;5076085;28;20821;-67
2023/03/18 09:05:58;;;;;;;6.40;6.10;;;14.80;12.60;;;;;;5076466;28;20992;-58
2023/03/18 09:08:24;;;;;;;6.30;6.00;;;15.00;13.40;;;;;;5076500;28;20409;-58
2023/03/18 09:10:52;;;;;;;6.80;6.50;;;15.20;11.80;;;;;;5076249;28;20206;-59
2023/03/18 09:13:18;;;;;;;7.00;6.73;;;15.60;10.10;;;;;;5076146;28;20838;-55
2023/03/18 09:15:45;;;;;;;6.50;6.30;;;15.90;9.50;;;;;;5076330;28;20447;-57
2023/03/18 09:18:12;;;;;;;7.00;6.70;;;16.10;9.50;;;;;;5076162;28;20505;-58
2023/03/18 09:20:39;;;;;;;6.60;6.40;;;16.30;9.30;;;;;;5076198;28;20892;-58
2023/03/18 09:23:05;;;;;;;7.03;6.73;;;16.50;9.70;;;;;;5075892;28;20448;-58
2023/03/18 09:25:31;;;;;;;7.13;6.43;;;16.60;10.40;;;;;;5076281;28;20428;-58
2023/03/18 09:27:57;;;;;;;6.50;6.30;;;16.80;9.50;;;;;;5075604;28;20478;-59
2023/03/18 09:30:24;;;;;;;6.93;6.73;;;16.90;9.50;;;;;;5075895;28;20210;-58
2023/03/18 09:32:49;;;;;;;7.37;7.07;;;17.10;9.80;;;;;;5075744;28;20170;-59
2023/03/18 09:35:15;;;;;;;7.03;6.73;;;17.20;10.10;;;;;;5075877;28;20466;-59
2023/03/18 09:37:42;;;;;;;6.90;6.60;;;17.30;10.80;;;;;;5075326;28;20191;-59
2023/03/18 09:40:21;;;;;;;6.67;6.27;;;17.40;10.60;;;;;;5075783;28;20182;-59
2023/03/18 09:43:12;;;;;;;6.30;6.10;;;17.50;10.60;;;;;;5093042;28;20425;-59
2023/03/18 09:46:14;;;;;;;6.20;5.90;;;17.70;8.10;;;;;;5074470;28;20428;-59
2023/03/18 09:48:54;;;;;;;7.87;7.40;;;17.70;8.80;;;;;;5093637;28;20409;-58
2023/03/18 09:51:40;;;;;;;7.57;7.17;;;17.80;10.70;;;;;;5072170;28;20508;-58
2023/03/18 09:54:21;;;;;;;7.20;6.90;;;17.80;9.10;;;;;;5071403;28;20810;-58
2023/03/18 09:56:48;;;;;;;6.50;6.30;;;17.70;9.70;;;;;;5072245;28;20509;-58
2023/03/18 09:59:33;;;;;;;7.37;7.07;;;17.70;9.60;;;;;;5083970;28;20845;-58
2023/03/18 10:01:59;;;;;;;6.30;5.97;;;17.90;9.70;;;;;;5075165;28;20429;-58
2023/03/18 10:04:27;;;;;;;6.33;6.13;;;17.90;9.80;;;;;;5075309;28;21007;-58
2023/03/18 10:07:00;;;;;;;7.23;6.70;;;17.80;9.80;;;;;;5075490;28;20452;-49
2023/03/18 10:09:38;;;;;;;7.60;7.03;;;17.80;9.00;;;;;;5074761;28;20488;-49
2023/03/18 10:12:13;;;;;;;6.50;6.20;;;17.80;9.30;;;;;;5093227;28;20420;-49
2023/03/18 10:14:50;;;;;;;6.60;6.20;;;17.80;9.40;;;;;;5074734;28;20832;-51
2023/03/18 10:17:50;;;;;;;7.17;6.80;;;17.80;10.50;;;;;;5072491;28;20424;-51
2023/03/18 10:20:21;;;;;;;6.73;6.43;;;17.80;10.50;;;;;;5061977;28;20421;-54
2023/03/18 10:23:03;;;;;;;7.13;6.73;;;17.80;10.10;;;;;;5074167;28;20962;-51
2023/03/18 10:25:35;;;;;;;6.50;6.20;;;17.80;11.00;;;;;;5073507;28;20413;-53
2023/03/18 10:28:53;;;;;;;6.83;6.43;;;17.80;9.90;;;;;;5072926;28;20421;-55
2023/03/18 10:31:46;;;;;;;6.83;6.40;;;17.80;10.50;;;;;;5033229;28;20448;-54
2023/03/18 10:34:21;;;;;;;7.33;6.90;;;17.80;10.40;;;;;;5069994;28;20956;-52
2023/03/18 10:37:02;;;;;;;7.13;6.70;;;17.90;9.90;;;;;;5068903;28;20856;-54
2023/03/18 10:39:29;;;;;;;6.87;6.50;;;17.90;9.80;;;;;;5073092;28;20812;-54
2023/03/18 10:42:00;;;;;;;6.43;6.13;;;18.00;9.90;;;;;;5073784;28;20393;-49
2023/03/18 10:44:36;;;;;;;6.93;6.63;;;17.90;10.60;;;;;;5074016;28;20408;-52
2023/03/18 10:47:20;;;;;;;6.97;6.57;;;17.90;10.10;;;;;;5073827;28;20496;-57
2023/03/18 10:49:56;;;;;;;7.37;6.87;;;18.00;9.90;;;;;;5074415;28;20506;-56
2023/03/18 10:52:39;;;;;;;7.23;6.80;;;17.90;10.20;;;;;;5074470;28;20417;-54
2023/03/18 10:55:14;;;;;;;6.30;6.00;;;17.90;9.80;;;;;;5074024;28;20417;-54
2023/03/18 10:57:40;;;;;;;5.93;5.57;;;18.00;9.60;;;;;;5074555;28;20427;-54
2023/03/18 11:00:27;;;;;;;5.80;5.60;;;18.10;7.80;;;;;;5074351;28;20416;-54
2023/03/18 11:02:55;;;;;;;6.00;5.80;;;18.10;7.40;;;;;;5074257;28;20174;-50
2023/03/18 11:05:33;;;;;;;5.77;5.57;;;18.00;7.90;;;;;;5073902;28;20413;-55
2023/03/18 11:08:05;;;;;;;5.70;5.40;;;18.00;8.90;;;;;;5074116;28;20420;-54
2023/03/18 11:10:34;;;;;;;6.50;6.20;;;18.00;7.00;;;;;;5073978;28;20835;-54
2023/03/18 11:13:05;;;;;;;5.73;5.57;;;18.00;7.10;;;;;;5073855;28;20413;-54
2023/03/18 11:15:41;;;;;;;6.17;5.90;;;18.00;7.30;;;;;;5074118;28;20847;-52
2023/03/18 11:18:15;;;;;;;5.80;5.60;;;18.00;7.30;;;;;;5074131;28;20416;-55
2023/03/18 11:20:46;;;;;;;6.00;5.70;;;18.00;7.30;;;;;;5074138;28;20753;-55
2023/03/18 11:23:55;;;;;;;6.23;5.80;;;18.00;6.80;;;;;;5074027;28;20420;-55
2023/03/18 11:26:28;;;;;;;5.87;5.60;;;18.00;6.50;;;;;;5073916;28;20781;-56
2023/03/18 11:28:59;;;;;;;6.27;5.97;;;18.00;6.20;;;;;;5073937;28;20487;-55
2023/03/18 11:31:24;;;;;;;6.03;5.83;;;18.00;6.70;;;;;;5073797;28;20503;-56
2023/03/18 11:33:57;;;;;;;6.30;6.00;;;18.10;6.70;;;;;;5092011;28;20488;-55
2023/03/18 11:36:25;;;;;;;6.80;6.50;;;18.10;8.50;;;;;;5073944;28;20534;-56
2023/03/18 11:39:05;;;;;;;6.40;6.10;;;18.10;6.70;;;;;;5073905;28;20856;-56
2023/03/18 11:41:30;;;;;;;6.10;5.90;;;18.20;6.30;;;;;;5073594;28;20408;-54
2023/03/18 11:44:02;;;;;;;6.10;5.80;;;18.20;5.90;;;;;;5073899;28;20458;-54
2023/03/18 11:46:52;;;;;;;6.33;6.03;;;18.30;5.90;;;;;;5073552;28;20182;-55
2023/03/18 11:49:24;;;;;;;5.87;5.67;;;18.30;5.60;;;;;;5073709;28;20983;-53
2023/03/18 11:52:03;;;;;;;5.97;5.70;;;18.40;4.80;;;;;;5073574;28;20401;-55
2023/03/18 11:54:46;;;;;;;5.10;5.00;;;18.50;3.20;;;;;;5073815;28;20435;-56
2023/03/18 11:57:24;;;;;;;5.50;5.20;;;18.50;3.20;;;;;;5073651;28;20429;-56
2023/03/18 11:59:59;;;;;;;5.80;5.60;;;18.50;3.50;;;;;;5073675;28;20408;-54
2023/03/18 12:02:46;;;;;;;5.43;5.23;;;18.60;3.60;;;;;;5073339;28;20531;-53
2023/03/18 12:05:39;;;;;;;5.73;5.43;;;18.60;3.70;;;;;;5073569;28;20419;-55
2023/03/18 12:08:11;;;;;;;6.33;6.00;;;18.60;3.20;;;;;;5072900;28;20939;-55
2023/03/18 12:11:04;;;;;;;6.57;6.07;;;18.60;4.10;;;;;;5073463;28;20593;-58
2023/03/18 12:13:42;;;;;;;5.50;5.30;;;18.60;3.80;;;;;;5065035;28;20413;-56
2023/03/18 12:16:22;;;;;;;5.70;5.40;;;18.70;4.10;;;;;;5074554;28;20908;-55
2023/03/18 12:19:00;;;;;;;5.40;5.20;;;18.70;4.30;;;;;;5077301;28;20412;-56
2023/03/18 12:21:41;;;;;;;6.00;5.70;;;18.80;4.40;;;;;;5077191;28;20496;-56
2023/03/18 12:24:13;;;;;;;5.57;5.37;;;18.90;4.70;;;;;;5077490;28;20423;-54
2023/03/18 12:26:50;;;;;;;5.63;5.43;;;18.80;4.90;;;;;;5077040;28;20471;-55
2023/03/18 12:29:27;;;;;;;5.77;5.27;;;18.70;4.60;;;;;;5076850;28;20455;-56
2023/03/18 12:32:21;;;;;;;5.40;5.20;;;18.60;5.10;;;;;;5076663;28;20409;-56
2023/03/18 12:35:06;;;;;;;5.77;5.47;;;18.70;5.50;;;;;;5076848;28;20405;-52
2023/03/18 12:37:40;;;;;;;5.60;5.30;;;18.70;5.50;;;;;;5076875;28;20851;-55
2023/03/18 12:40:18;;;;;;;6.80;6.40;;;18.70;5.20;;;;;;5076618;28;20420;-56
2023/03/18 12:43:10;;;;;;;5.70;5.40;;;18.90;4.50;;;;;;5076450;28;20416;-56
2023/03/18 12:45:46;;;;;;;5.20;5.00;;;19.00;4.40;;;;;;5076977;28;20769;-54
2023/03/18 12:48:26;;;;;;;6.63;5.33;;;19.00;4.00;;;;;;5076322;28;20400;-56
2023/03/18 12:51:02;;;;;;;5.40;5.20;;;19.00;3.80;;;;;;5076537;28;20971;-55
2023/03/18 12:53:33;;;;;;;5.60;5.30;;;19.00;4.00;;;;;;5076417;28;20449;-55
2023/03/18 12:56:20;;;;;;;5.60;5.40;;;19.10;4.20;;;;;;5076481;28;20954;-54
2023/03/18 12:59:01;;;;;;;5.47;5.27;;;19.20;3.90;;;;;;5075185;28;20415;-55
2023/03/18 13:01:31;;;;;;;5.60;5.40;;;19.10;4.30;;;;;;5086363;28;20422;-54